Edith Kirk — 2DST9 — position and weather

sailwx.info

Track history (hours):
 
Tides and Currents Weather Stations Pressure Air Temp Water Temp Dewpoint Dewpoint Depression Visibility Wind Speed Wind Dir Waves Ship Positions

Edith Kirk

Last reported at 2016-Aug-27 23:33 UTC. Time now 2016-Aug-28 00:27 UTC.
Position N 59°43' E 023°55'.

Length 183 m; draft 11.4 m.

Type: Ship. MMSI: 235081745.

Date/timePositionNaut miles runAvg speedWind from/ knotsBaromVisibWave heightAir tempDewpointWater temp
2016-Aug-27 23:33N 59°43' E 023°55'1212.0
2016-Aug-27 22:33N 59°46' E 024°18'1211.6
2016-Aug-27 21:33N 59°49' E 024°40'5310.6
2016-Aug-27 16:33N 59°55' E 026°25'3210.2
2016-Aug-27 13:23N 59°35' E 027°16'1012.1
2016-Aug-27 12:33N 59°31' E 027°34'8 0.3
2016-Aug-26 08:33N 59°25' E 027°44'0 0.1
2016-Aug-26 07:34N 59°25' E 027°44'4 3.6
2016-Aug-26 06:33N 59°29' E 027°42'4112.4
2016-Aug-26 03:17N 59°52' E 026°36'912.8
2016-Aug-26 02:33N 59°57' E 026°20'4214.0
2016-Aug-25 23:34N 59°47' E 024°59'1010.3
2016-Aug-25 22:33N 59°42' E 024°41'  
2016-Aug-23 11:31N 59°32' E 024°57'1212.6
2016-Aug-23 10:32N 59°41' E 024°43'10 9.4
2016-Aug-23 09:26N 59°50' E 024°53'3812.8
2016-Aug-23 06:30N 59°58' E 026°07'1313.4
2016-Aug-23 05:33N 60°01' E 026°31'1613.0
2016-Aug-23 04:19N 59°59' E 027°03'1113.1
2016-Aug-23 03:29N 60°05' E 027°21'1212.9
2016-Aug-23 02:31N 60°12' E 027°43'1212.6
2016-Aug-23 01:33N 60°09' E 028°07'1312.8
2016-Aug-23 00:33N 60°04' E 028°30'1313.0
2016-Aug-22 23:33N 60°03' E 028°56'1412.9
2016-Aug-22 22:26N 60°02' E 029°25'8 9.3
2016-Aug-22 21:32N 59°60' E 029°41'9 9.2
2016-Aug-22 20:33N 59°56' E 029°57'7 7.3
2016-Aug-22 19:33N 59°53' E 030°11'0 0.1
2016-Aug-22 18:30N 59°53' E 030°11'0 0.0
2016-Aug-22 17:33N 59°53' E 030°11'0 0.0
2016-Aug-21 03:33N 59°53' E 030°11'4 3.7
2016-Aug-21 02:33N 59°54' E 030°04'1110.7
2016-Aug-21 01:33N 59°59' E 029°45'1010.1
2016-Aug-21 00:33N 60°01' E 029°25'1 1.1
2016-Aug-20 23:33N 60°02' E 029°24'0 0.0
2016-Aug-20 22:33N 60°02' E 029°24'0 0.0
2016-Aug-20 21:33N 60°02' E 029°24'0 0.0
2016-Aug-20 20:18N 60°02' E 029°24'0 0.0
2016-Aug-20 19:33N 60°02' E 029°24'0 0.0
2016-Aug-20 18:30N 60°02' E 029°24'0 0.0
2016-Aug-20 17:15N 60°02' E 029°24'0 0.0
2016-Aug-20 16:33N 60°02' E 029°24'0 0.0
2016-Aug-20 15:33N 60°02' E 029°24'0 0.0
2016-Aug-20 13:33N 60°02' E 029°24'0 0.0
2016-Aug-20 08:33N 60°02' E 029°24'0 0.0
2016-Aug-20 07:29N 60°02' E 029°24'0 0.0
2016-Aug-19 21:32N 60°02' E 029°24'0 0.0
2016-Aug-19 20:32N 60°02' E 029°24'0 0.0
2016-Aug-19 19:32N 60°02' E 029°24'0 0.0
2016-Aug-19 07:21N 60°02' E 029°24'5 4.7
2016-Aug-19 06:13N 60°02' E 029°14'913.1
2016-Aug-19 05:33N 60°02' E 028°56'1313.4
2016-Aug-19 04:33N 60°03' E 028°30'1313.1
2016-Aug-19 03:33N 60°09' E 028°06'1312.8
2016-Aug-19 02:33N 60°09' E 027°40'1313.6
2016-Aug-19 01:33N 60°02' E 027°18'1512.6
2016-Aug-19 00:20N 59°59' E 026°48'1012.9
2016-Aug-18 23:33N 59°58' E 026°28'4413.2
2016-Aug-18 20:11N 59°47' E 025°02'813.0
2016-Aug-18 19:33N 59°46' E 024°46'1313.1
2016-Aug-18 18:33N 59°43' E 024°21'1312.9
2016-Aug-18 17:33N 59°39' E 023°56'1313.1
2016-Aug-18 16:32N 59°34' E 023°32'  
Track history (hours):
 
Tides and Currents Weather Stations Pressure Air Temp Water Temp Dewpoint Dewpoint Depression Visibility Wind Speed Wind Dir Waves Ship Positions

Edith Kirk

Last reported at 2016-Aug-27 23:33 UTC. Time now 2016-Aug-28 00:28 UTC.
Position N 59°43' E 023°55'.

Length 183 m; draft 11.4 m.

Type: Ship. MMSI: 235081745.

Date/timePositionNaut miles runAvg speedWind from/ knotsBaromVisibWave heightAir tempDewpointWater temp
2016-Aug-27 23:33N 59°43' E 023°55'1212.0
2016-Aug-27 22:33N 59°46' E 024°18'1211.6
2016-Aug-27 21:33N 59°49' E 024°40'5310.6
2016-Aug-27 16:33N 59°55' E 026°25'3210.2
2016-Aug-27 13:23N 59°35' E 027°16'1012.1
2016-Aug-27 12:33N 59°31' E 027°34'8 0.3
2016-Aug-26 08:33N 59°25' E 027°44'0 0.1
2016-Aug-26 07:34N 59°25' E 027°44'4 3.6
2016-Aug-26 06:33N 59°29' E 027°42'4112.4
2016-Aug-26 03:17N 59°52' E 026°36'912.8
2016-Aug-26 02:33N 59°57' E 026°20'4214.0
2016-Aug-25 23:34N 59°47' E 024°59'1010.3
2016-Aug-25 22:33N 59°42' E 024°41'  
2016-Aug-23 11:31N 59°32' E 024°57'1212.6
2016-Aug-23 10:32N 59°41' E 024°43'10 9.4
2016-Aug-23 09:26N 59°50' E 024°53'3812.8
2016-Aug-23 06:30N 59°58' E 026°07'1313.4
2016-Aug-23 05:33N 60°01' E 026°31'1613.0
2016-Aug-23 04:19N 59°59' E 027°03'1113.1
2016-Aug-23 03:29N 60°05' E 027°21'1212.9
2016-Aug-23 02:31N 60°12' E 027°43'1212.6
2016-Aug-23 01:33N 60°09' E 028°07'1312.8
2016-Aug-23 00:33N 60°04' E 028°30'1313.0
2016-Aug-22 23:33N 60°03' E 028°56'1412.9
2016-Aug-22 22:26N 60°02' E 029°25'8 9.3
2016-Aug-22 21:32N 59°60' E 029°41'9 9.2
2016-Aug-22 20:33N 59°56' E 029°57'7 7.3
2016-Aug-22 19:33N 59°53' E 030°11'0 0.1
2016-Aug-22 18:30N 59°53' E 030°11'0 0.0
2016-Aug-22 17:33N 59°53' E 030°11'0 0.0
2016-Aug-21 03:33N 59°53' E 030°11'4 3.7
2016-Aug-21 02:33N 59°54' E 030°04'1110.7
2016-Aug-21 01:33N 59°59' E 029°45'1010.1
2016-Aug-21 00:33N 60°01' E 029°25'1 1.1
2016-Aug-20 23:33N 60°02' E 029°24'0 0.0
2016-Aug-20 22:33N 60°02' E 029°24'0 0.0
2016-Aug-20 21:33N 60°02' E 029°24'0 0.0
2016-Aug-20 20:18N 60°02' E 029°24'0 0.0
2016-Aug-20 19:33N 60°02' E 029°24'0 0.0
2016-Aug-20 18:30N 60°02' E 029°24'0 0.0
2016-Aug-20 17:15N 60°02' E 029°24'0 0.0
2016-Aug-20 16:33N 60°02' E 029°24'0 0.0
2016-Aug-20 15:33N 60°02' E 029°24'0 0.0
2016-Aug-20 13:33N 60°02' E 029°24'0 0.0
2016-Aug-20 08:33N 60°02' E 029°24'0 0.0
2016-Aug-20 07:29N 60°02' E 029°24'0 0.0
2016-Aug-19 21:32N 60°02' E 029°24'0 0.0
2016-Aug-19 20:32N 60°02' E 029°24'0 0.0
2016-Aug-19 19:32N 60°02' E 029°24'0 0.0
2016-Aug-19 07:21N 60°02' E 029°24'5 4.7
2016-Aug-19 06:13N 60°02' E 029°14'913.1
2016-Aug-19 05:33N 60°02' E 028°56'1313.4
2016-Aug-19 04:33N 60°03' E 028°30'1313.1
2016-Aug-19 03:33N 60°09' E 028°06'1312.8
2016-Aug-19 02:33N 60°09' E 027°40'1313.6
2016-Aug-19 01:33N 60°02' E 027°18'1512.6
2016-Aug-19 00:20N 59°59' E 026°48'1012.9
2016-Aug-18 23:33N 59°58' E 026°28'4413.2
2016-Aug-18 20:11N 59°47' E 025°02'813.0
2016-Aug-18 19:33N 59°46' E 024°46'1313.1
2016-Aug-18 18:33N 59°43' E 024°21'1312.9
2016-Aug-18 17:33N 59°39' E 023°56'1313.1
2016-Aug-18 16:32N 59°34' E 023°32'  

Dump ship's entire track history